Snow/Ice From: 23-10-2018 22:46 Until: 24-10-2018 08:00 warning for: Snow/Ice Level: Yellow info button
suomi:
Liikennesää: Ajokeli on huono tienpintojen jäätymisen vuoksi.

svenska:
Trafikvädret: Väglaget är dåligt p.g.a. tillfrysning av vägytor.

english:
Traffic weather warning: Bad road conditions are expected because of ice-covered roads. 


Thunder radar more information blitzortung!


Löydät sääaseman tiedot myös:

European Weather Network

Finland Weather Exchange

Weather Underground

AWEKAS



Weather Underground säähistoriasivu

Päivittäin yhteenveto Syyskuu 14, 2017 Yksiköt:  Metriset    Englantilaiset   Molemmat
« Edellinen Päivä
Seuraava Päivä »
Päivittäin Viikoittain Kuukausittain Vuosittain Mukautettu
  Korkea: Matala: Keskiarvo:
Lämpötila: -17.8 °C 7.6 °C 10.5 °C
Kastepiste: -17.8 °C 7.2 °C 9.8 °C
Kosteus: Humidity % 84 % 95 %
Tuulen nopeus: 0 km/h 0 km/h 0 km/h
Tuulenpuuska: 0 km/h - -
Tuuli:- - WNW
Ilmanpaine: 0 hPa 987 hPa -
Sade: 0 mm    
Historical Graphs
 
 
Taulukkotiedot Syyskuu 14, 2017
Aika Lämpötila Kastepiste Ilmanpaine Tuuli Tuulen nopeus Tuulenpuuska Kosteus Sademäärä (tunneittain)
-17.8 °C -17.8 °C 0 hPa Calm     Humidity % 0 mm
00:00 7.6 °C 7.2 °C 990.7 hPa Calm     97 % 0 mm
00:15 7.9 °C 7.6 °C 990.7 hPa Calm     98 % 0 mm
00:30 8.1 °C 7.7 °C 990.7 hPa Calm     97 % 0 mm
00:45 8.2 °C 7.9 °C 990.4 hPa Calm     98 % 0 mm
01:00 8.3 °C 8 °C 990.4 hPa Calm     98 % 0 mm
01:15 8.4 °C 8 °C 990.1 hPa Calm     97 % 0 mm
01:30 8.6 °C 8.3 °C 990.1 hPa Calm     98 % 0 mm
01:45 8.6 °C 8.3 °C 990.1 hPa Calm     98 % 0 mm
02:00 8.6 °C 8.3 °C 989.7 hPa Calm     98 % 0 mm
02:15 8.7 °C 8.4 °C 989.7 hPa Calm     98 % 0 mm
02:30 8.7 °C 8.4 °C 989.7 hPa Calm     98 % 0 mm
02:45 8.7 °C 8.4 °C 989.4 hPa Calm     98 % 0 mm
03:00 8.6 °C 8.3 °C 989.1 hPa Calm     98 % 0 mm
03:15 8.4 °C 8 °C 989.1 hPa Calm     97 % 0 mm
03:30 8.4 °C 8 °C 989.1 hPa Calm     97 % 0 mm
03:45 8.4 °C 8.1 °C 989.1 hPa Calm     98 % 0 mm
04:00 8.5 °C 8.2 °C 988.7 hPa Calm     98 % 0 mm
04:15 8.6 °C 8.3 °C 988.7 hPa Calm     98 % 0 mm
04:30 8.7 °C 8.4 °C 988.7 hPa Calm     98 % 0 mm
04:45 8.8 °C 8.5 °C 988.7 hPa Calm     98 % 0 mm
05:00 8.9 °C 8.6 °C 988.4 hPa Calm     98 % 0 mm
05:15 9 °C 8.7 °C 988.4 hPa Calm     98 % 0 mm
05:30 9.1 °C 8.8 °C 988.4 hPa Calm     98 % 0 mm
05:45 9.1 °C 8.8 °C 988 hPa Calm     98 % 0 mm
06:00 9.2 °C 8.9 °C 988 hPa Calm     98 % 0 mm
06:30 9.2 °C 8.9 °C 987.7 hPa Calm     98 % 0 mm
06:45 9.2 °C 8.9 °C 987.7 hPa Calm     98 % 0 mm
07:00 9.2 °C 8.9 °C 987.7 hPa Calm     98 % 0 mm
07:15 9.3 °C 9 °C 987.7 hPa Calm     98 % 0 mm
07:30 9.3 °C 9 °C 987.7 hPa Calm     98 % 0 mm
07:45 9.4 °C 9.1 °C 987.4 hPa Calm     98 % 0 mm
08:00 9.6 °C 9.3 °C 987.4 hPa Calm     98 % 0 mm
08:15 9.7 °C 9.4 °C 987.4 hPa Calm     98 % 0 mm
08:30 9.7 °C 9.4 °C 987 hPa Calm     98 % 0 mm
08:45 9.8 °C 9.5 °C 987 hPa Calm     98 % 0 mm
09:00 9.8 °C 9.5 °C 987 hPa Calm     98 % 0 mm
09:15 9.9 °C 9.6 °C 987 hPa Calm     98 % 0 mm
09:30 10.1 °C 9.8 °C 987 hPa Calm     98 % 0 mm
09:45 10.3 °C 10 °C 987 hPa Calm     98 % 0 mm
10:00 10.4 °C 10.1 °C 987 hPa Calm     98 % 0 mm
10:15 10.4 °C 10.1 °C 987 hPa Calm     98 % 0 mm
10:30 10.6 °C 10.3 °C 987 hPa Calm     98 % 0 mm
10:45 10.9 °C 10.6 °C 987 hPa Calm     98 % 0 mm
11:00 11.1 °C 10.8 °C 987 hPa Calm     98 % 0 mm
11:15 11.1 °C 10.8 °C 987 hPa Calm     98 % 0 mm
11:30 11.2 °C 10.9 °C 987 hPa Calm     98 % 0 mm
11:45 11.3 °C 11 °C 987 hPa Calm     98 % 0 mm
12:00 11.4 °C 11.1 °C 987 hPa Calm     98 % 0 mm
12:15 11.5 °C 11.2 °C 987.4 hPa Calm     98 % 0 mm
12:30 11.6 °C 11.3 °C 987.4 hPa Calm     98 % 0 mm
12:45 11.7 °C 11.4 °C 987.4 hPa Calm   1.6 km/h 98 % 0 mm
13:00 11.8 °C 11.5 °C 987.4 hPa Calm     98 % 0 mm
13:15 11.9 °C 11.6 °C 987.4 hPa Calm     98 % 0 mm
13:30 12 °C 11.7 °C 987.4 hPa Calm   1.6 km/h 98 % 0 mm
13:45 12 °C 11.5 °C 987.7 hPa Calm     97 % 0 mm
14:00 12.2 °C 11.8 °C 987.7 hPa Calm     97 % 0 mm
14:15 12.3 °C 11.8 °C 987.7 hPa Calm   1.6 km/h 97 % 0 mm
14:30 12.6 °C 12.1 °C 987.7 hPa Calm     97 % 0 mm
14:45 12.6 °C 11.9 °C 987.7 hPa Calm     96 % 0 mm
15:00 12.8 °C 12.3 °C 987.7 hPa Calm   3.2 km/h 97 % 0 mm
15:15 13.6 °C 12.4 °C 987.4 hPa West 1.6 km/h 4.8 km/h 93 % 0 mm
15:30 14 °C 12.6 °C 987.4 hPa Calm   3.2 km/h 91 % 0 mm
15:45 14.2 °C 12.4 °C 987.4 hPa Calm   4.8 km/h 89 % 0 mm
16:00 14.4 °C 12.8 °C 987.4 hPa Calm     90 % 0 mm
16:15 14.9 °C 12.8 °C 987.4 hPa WNW 1.6 km/h 6.4 km/h 87 % 0 mm
16:30 14.8 °C 12.2 °C 987.4 hPa NW 1.6 km/h 9.7 km/h 84 % 0 mm
16:45 14.4 °C 12.5 °C 987.4 hPa Calm   1.6 km/h 88 % 0 mm
17:00 14.6 °C 12.3 °C 987.4 hPa Calm   1.6 km/h 86 % 0 mm
17:15 14.3 °C 12.2 °C 987 hPa Calm   1.6 km/h 87 % 0 mm
17:30 14.3 °C 12.5 °C 987.4 hPa Calm   1.6 km/h 89 % 0 mm
17:45 14.2 °C 12.4 °C 987.4 hPa Calm   3.2 km/h 89 % 0 mm
18:00 13.4 °C 11 °C 987.4 hPa Calm   1.6 km/h 85 % 0 mm
18:15 13 °C 11.1 °C 987.4 hPa Calm     88 % 0 mm
18:30 12.8 °C 11.3 °C 987.4 hPa Calm     91 % 0 mm
18:45 12.6 °C 11.3 °C 987.7 hPa Calm     92 % 0 mm
19:00 12.3 °C 11.2 °C 987.7 hPa Calm     93 % 0 mm
19:15 12.2 °C 11.2 °C 987.7 hPa Calm     94 % 0 mm
19:30 12.1 °C 11.3 °C 987.7 hPa Calm     95 % 0 mm
19:45 12.1 °C 11.4 °C 987.7 hPa Calm     96 % 0 mm
20:00 12 °C 11.4 °C 987.7 hPa Calm     96 % 0 mm
20:15 11.8 °C 11.2 °C 987.7 hPa Calm     96 % 0 mm
20:30 11.7 °C 11.1 °C 987.7 hPa Calm     96 % 0 mm
20:45 11.6 °C 10.9 °C 988 hPa Calm     96 % 0 mm
21:00 11.6 °C 10.9 °C 988 hPa Calm   4.8 km/h 96 % 0 mm
21:15 11.3 °C 10.7 °C 988 hPa Calm     96 % 0 mm
21:30 10.9 °C 10.3 °C 988.4 hPa Calm   3.2 km/h 96 % 0 mm
21:45 10.6 °C 10 °C 988 hPa Calm     96 % 0 mm
22:00 10.6 °C 9.9 °C 988.4 hPa Calm   1.6 km/h 96 % 0 mm
22:15 10.4 °C 10 °C 988.4 hPa Calm     97 % 0 mm
22:30 10.4 °C 9.9 °C 988.4 hPa Calm     97 % 0 mm
22:45 10.3 °C 9.9 °C 988.4 hPa Calm     97 % 0 mm
23:00 10.3 °C 9.8 °C 988.7 hPa Calm     97 % 0 mm
23:15 10.3 °C 9.8 °C 988.7 hPa Calm     97 % 0 mm
23:30 10.3 °C 9.9 °C 988.7 hPa Calm   1.6 km/h 97 % 0 mm
23:45 10.5 °C 10 °C 988.7 hPa Calm   1.6 km/h 97 % 0 mm
Esan sääasema
Terveisin Weather Underground - 2.75 mb

Alkuperäinen skripti  Jim McMurry - jmcmurry@mwt.net Sovitettu myös templatelle  Wim van der Kuil - Leuven-Template.eu

Laitteet joita käytämme:

Sääasema
Davis VP2

Sääasemaohjelma
Cumulus

Sääaseman tietokone
Asus EeePC

Palveluntarjoaja
Suncomet

Davis VP2

Cumulus

Asus EeePC

Suncomet